Time;durP1;ratioP1;P1;durP2;ratioP2;P2;SDS_P1;SDS_P2;PMS_P1;PMS_P2;Temp;Humidity;BMP_temperature;BMP_pressure;BME280_temperature;BME280_humidity;BME280_pressure;Samples;Min_cycle;Max_cycle;Signal;HPM_P1;HPM_P2
2022/12/22 03:26:51;;;;;;;38.58;27.52;;;8.50;99.90;;;;;;5122263;27;20047;-51
2022/12/22 03:29:17;;;;;;;37.47;28.45;;;8.50;99.90;;;;;;5110462;27;20036;-53
2022/12/22 03:31:42;;;;;;;42.85;29.48;;;8.50;99.90;;;;;;5123358;27;20066;-56
2022/12/22 03:34:08;;;;;;;36.10;26.67;;;8.50;99.90;;;;;;5122476;27;20053;-56
2022/12/22 03:36:34;;;;;;;39.00;28.38;;;8.60;99.90;;;;;;5126475;27;20437;-52
2022/12/22 03:38:59;;;;;;;45.03;30.10;;;8.50;99.90;;;;;;5121864;27;20051;-54
2022/12/22 03:46:54;;;;;;;44.97;29.25;;;8.50;99.90;;;;;;5124983;27;20036;-50
2022/12/22 03:49:21;;;;;;;43.22;29.63;;;8.50;99.90;;;;;;5121471;27;20438;-51
2022/12/22 03:51:49;;;;;;;35.93;27.77;;;8.50;99.90;;;;;;5123957;27;20035;-56
2022/12/22 03:54:20;;;;;;;40.80;29.00;;;8.60;99.90;;;;;;5120802;27;20309;-55
2022/12/22 03:56:46;;;;;;;38.83;28.05;;;8.50;99.90;;;;;;5123979;27;20041;-55
2022/12/22 03:59:12;;;;;;;50.40;29.20;;;8.50;99.90;;;;;;5121340;27;20387;-52
2022/12/22 04:01:44;;;;;;;42.92;28.35;;;8.60;99.90;;;;;;5125088;27;20043;-51
2022/12/22 04:04:10;;;;;;;37.17;27.67;;;8.60;99.90;;;;;;5123912;27;20046;-51
2022/12/22 04:06:36;;;;;;;41.97;29.05;;;8.60;99.90;;;;;;5123141;27;20080;-52
2022/12/22 04:09:02;;;;;;;40.97;29.35;;;8.60;99.90;;;;;;5127336;27;20475;-51
2022/12/22 04:14:11;;;;;;;51.35;28.80;;;8.60;99.90;;;;;;5120358;27;20055;-51
2022/12/22 04:16:37;;;;;;;49.88;29.08;;;8.60;99.90;;;;;;5123732;27;20050;-52
2022/12/22 04:19:03;;;;;;;40.90;29.38;;;8.60;99.90;;;;;;5127914;27;20035;-51
2022/12/22 04:21:28;;;;;;;36.25;28.13;;;8.60;99.90;;;;;;5119130;27;20065;-54
2022/12/22 04:23:54;;;;;;;42.17;28.73;;;8.60;99.90;;;;;;5119614;27;21465;-52
2022/12/22 04:26:22;;;;;;;46.47;27.83;;;8.60;99.90;;;;;;5119830;27;20495;-51
2022/12/22 04:28:51;;;;;;;41.45;29.08;;;8.60;99.90;;;;;;5122303;27;20480;-51
2022/12/22 04:31:17;;;;;;;39.10;27.60;;;8.60;99.90;;;;;;5122187;27;20063;-54
2022/12/22 04:33:44;;;;;;;42.15;28.85;;;8.60;99.90;;;;;;5119956;27;20039;-53
2022/12/22 04:36:10;;;;;;;43.92;28.75;;;8.60;99.90;;;;;;5116375;27;20058;-53
2022/12/22 04:38:36;;;;;;;41.50;27.92;;;8.60;99.90;;;;;;5116393;27;20118;-56
2022/12/22 04:41:01;;;;;;;39.58;27.63;;;8.60;99.90;;;;;;5114650;27;20384;-55
2022/12/22 04:43:27;;;;;;;42.63;28.65;;;8.60;99.90;;;;;;5116016;27;20480;-55
2022/12/22 04:45:54;;;;;;;39.45;28.52;;;8.60;99.90;;;;;;5090239;27;20092;-55
2022/12/22 04:48:21;;;;;;;41.13;28.67;;;8.60;99.90;;;;;;5098591;27;20044;-56
2022/12/22 04:50:51;;;;;;;49.90;28.35;;;8.60;99.90;;;;;;5116647;27;20445;-51
2022/12/22 04:53:17;;;;;;;46.00;28.33;;;8.60;99.90;;;;;;5115149;27;20153;-56
2022/12/22 04:55:53;;;;;;;40.15;28.02;;;8.60;99.90;;;;;;5116822;27;20113;-51
2022/12/22 04:58:19;;;;;;;33.75;26.30;;;8.60;99.90;;;;;;5116940;27;20050;-52
2022/12/22 05:00:45;;;;;;;45.70;28.80;;;8.60;99.90;;;;;;5116111;27;20173;-55
2022/12/22 05:03:10;;;;;;;43.35;29.33;;;8.60;99.90;;;;;;5113681;27;20065;-51
2022/12/22 05:05:36;;;;;;;47.13;29.63;;;8.60;99.90;;;;;;5113358;27;20429;-51
2022/12/22 05:08:03;;;;;;;47.28;28.50;;;8.60;99.90;;;;;;5116273;27;20039;-52
2022/12/22 05:10:29;;;;;;;44.00;30.23;;;8.60;99.90;;;;;;5112985;27;20377;-55
2022/12/22 05:12:55;;;;;;;48.15;29.88;;;8.70;99.90;;;;;;5119180;27;20057;-54
2022/12/22 05:15:30;;;;;;;54.08;30.88;;;8.60;99.90;;;;;;5119661;27;20071;-53
2022/12/22 05:17:56;;;;;;;42.13;29.10;;;8.60;99.90;;;;;;5120277;27;20088;-56
2022/12/22 05:20:23;;;;;;;49.72;30.48;;;8.60;99.90;;;;;;5116284;27;20078;-53
2022/12/22 05:22:48;;;;;;;51.92;31.17;;;8.60;99.90;;;;;;5118284;27;20104;-56
2022/12/22 05:25:15;;;;;;;57.72;31.98;;;8.60;99.90;;;;;;5115783;27;20047;-55
2022/12/22 05:27:45;;;;;;;54.67;30.00;;;8.60;99.90;;;;;;5120046;27;20535;-56
2022/12/22 05:30:11;;;;;;;44.55;29.83;;;8.60;99.90;;;;;;5116123;27;20032;-53
2022/12/22 05:32:37;;;;;;;66.07;32.20;;;8.60;99.90;;;;;;5122850;27;20075;-56
2022/12/22 05:35:03;;;;;;;58.20;31.15;;;8.60;99.90;;;;;;5117412;27;20093;-55
2022/12/22 05:37:29;;;;;;;60.47;31.45;;;8.60;99.90;;;;;;5126989;27;20459;-56
2022/12/22 05:39:55;;;;;;;53.90;30.42;;;8.60;99.90;;;;;;5119145;27;20161;-52
2022/12/22 05:42:36;;;;;;;56.88;30.52;;;8.60;99.90;;;;;;5115365;27;20038;-54
2022/12/22 05:45:07;;;;;;;46.50;29.23;;;8.60;99.90;;;;;;5121298;27;20038;-54
2022/12/22 05:47:33;;;;;;;55.22;29.67;;;8.50;99.90;;;;;;5114390;27;20336;-53
2022/12/22 05:49:59;;;;;;;49.97;29.77;;;8.60;99.90;;;;;;5118755;27;20031;-53
2022/12/22 05:52:25;;;;;;;67.65;30.08;;;8.60;99.90;;;;;;5119690;27;20049;-56
2022/12/22 05:54:50;;;;;;;62.78;31.48;;;8.60;99.90;;;;;;5122356;27;20047;-54
2022/12/22 05:57:16;;;;;;;52.63;29.98;;;8.60;99.90;;;;;;5120983;27;20497;-56
2022/12/22 05:59:41;;;;;;;62.83;30.83;;;8.60;99.90;;;;;;5117037;27;20035;-55
2022/12/22 06:02:07;;;;;;;55.17;28.85;;;8.60;99.90;;;;;;5120919;27;20429;-56
2022/12/22 06:04:32;;;;;;;50.80;28.33;;;8.60;99.90;;;;;;5119185;27;20065;-55
2022/12/22 06:06:58;;;;;;;42.85;27.20;;;8.60;99.90;;;;;;5118820;27;20043;-55
2022/12/22 06:09:24;;;;;;;50.90;28.88;;;8.50;99.90;;;;;;5118950;27;20051;-54
2022/12/22 06:11:49;;;;;;;49.50;29.48;;;8.60;99.90;;;;;;5120019;27;20071;-53
2022/12/22 06:14:15;;;;;;;47.08;28.60;;;8.60;99.90;;;;;;5117242;27;20402;-54
2022/12/22 06:16:40;;;;;;;45.40;28.65;;;8.60;99.90;;;;;;5120592;27;21522;-52
2022/12/22 06:19:06;;;;;;;43.05;27.95;;;8.50;99.90;;;;;;5116874;28;20039;-55
2022/12/22 06:21:31;;;;;;;44.97;27.85;;;8.50;99.90;;;;;;5114904;27;20637;-53
2022/12/22 06:23:58;;;;;;;45.90;27.90;;;8.50;99.90;;;;;;5123771;27;20035;-54
2022/12/22 06:26:24;;;;;;;46.22;27.23;;;8.60;99.90;;;;;;5128430;27;20039;-54
2022/12/22 06:28:49;;;;;;;50.42;27.40;;;8.50;99.90;;;;;;5128491;27;20511;-51
2022/12/22 06:31:15;;;;;;;43.58;27.08;;;8.50;99.90;;;;;;5121708;27;20035;-52
2022/12/22 06:33:40;;;;;;;46.15;27.55;;;8.60;99.90;;;;;;5125388;27;20043;-53
2022/12/22 06:36:07;;;;;;;43.28;27.27;;;8.60;99.90;;;;;;5118022;27;20129;-53
2022/12/22 06:38:33;;;;;;;39.25;26.70;;;8.60;99.90;;;;;;5123826;27;20051;-54
2022/12/22 06:40:59;;;;;;;46.47;27.05;;;8.50;99.90;;;;;;5127501;27;20128;-51
2022/12/22 06:43:25;;;;;;;46.15;28.98;;;8.50;99.90;;;;;;5123403;27;20104;-55
2022/12/22 06:45:50;;;;;;;48.30;28.85;;;8.50;99.90;;;;;;5123541;27;20071;-55
2022/12/22 06:48:16;;;;;;;51.33;28.45;;;8.50;99.90;;;;;;5124734;27;20481;-53
2022/12/22 06:50:42;;;;;;;41.85;27.83;;;8.50;99.90;;;;;;5126016;27;20042;-56
2022/12/22 06:53:08;;;;;;;51.95;29.45;;;8.50;99.90;;;;;;5121794;27;20094;-55
2022/12/22 06:55:34;;;;;;;59.40;29.17;;;8.60;99.90;;;;;;5129575;27;20035;-52
2022/12/22 06:57:59;;;;;;;54.83;30.15;;;8.60;99.90;;;;;;5122122;27;20283;-53
2022/12/22 07:00:25;;;;;;;49.63;28.60;;;8.60;99.90;;;;;;5120630;27;20518;-54
2022/12/22 07:02:51;;;;;;;57.85;29.05;;;8.60;99.90;;;;;;5123790;27;20109;-54
2022/12/22 07:05:16;;;;;;;57.08;29.45;;;8.60;99.90;;;;;;5122951;27;20053;-55
2022/12/22 07:07:42;;;;;;;50.25;26.35;;;8.70;99.90;;;;;;5124662;27;20058;-56
2022/12/22 07:10:09;;;;;;;58.10;28.83;;;8.60;99.90;;;;;;5120255;27;20035;-54
2022/12/22 07:12:34;;;;;;;56.95;27.42;;;8.60;99.90;;;;;;5120068;27;20035;-52
2022/12/22 07:15:00;;;;;;;57.65;28.40;;;8.60;99.90;;;;;;5119140;27;20048;-57
2022/12/22 07:17:25;;;;;;;64.10;28.60;;;8.60;99.90;;;;;;5113208;27;20069;-55
2022/12/22 07:19:51;;;;;;;61.83;28.33;;;8.60;99.90;;;;;;5119459;27;20135;-51
2022/12/22 07:22:17;;;;;;;66.20;29.92;;;8.60;99.90;;;;;;5120439;27;20392;-54
2022/12/22 07:24:42;;;;;;;72.40;32.40;;;8.50;99.90;;;;;;5129263;27;20078;-52
2022/12/22 07:27:08;;;;;;;77.03;32.03;;;8.50;99.90;;;;;;5133774;27;20376;-51
2022/12/22 07:29:35;;;;;;;82.15;31.60;;;8.50;99.90;;;;;;5125244;27;20078;-51
2022/12/22 07:32:01;;;;;;;84.68;32.40;;;8.40;99.90;;;;;;5118173;27;20122;-52
2022/12/22 07:34:27;;;;;;;76.43;31.27;;;8.30;99.90;;;;;;5120481;27;20186;-52
2022/12/22 07:36:52;;;;;;;75.95;29.70;;;8.20;99.90;;;;;;5119526;27;20381;-52
2022/12/22 07:39:18;;;;;;;68.13;30.55;;;8.00;99.90;;;;;;5121603;27;20039;-51
2022/12/22 07:44:28;;;;;;;67.13;28.65;;;7.80;99.90;;;;;;5122242;27;20039;-52
2022/12/22 07:46:53;;;;;;;92.65;29.95;;;7.70;99.90;;;;;;5117722;27;20042;-52
2022/12/22 07:52:03;;;;;;;83.90;30.27;;;7.50;99.90;;;;;;5117715;27;20055;-51
2022/12/22 07:54:30;;;;;;;89.38;31.58;;;;;;;;;;5125628;27;20043;-52
2022/12/22 07:56:55;;;;;;;116.03;31.45;;;7.40;99.90;;;;;;5116612;27;20070;-52
2022/12/22 07:59:21;;;;;;;110.38;32.25;;;7.40;99.90;;;;;;5115479;27;20514;-52
2022/12/22 08:01:47;;;;;;;107.68;32.70;;;7.30;99.90;;;;;;5122926;27;20118;-54
2022/12/22 08:04:13;;;;;;;117.47;33.13;;;7.20;99.90;;;;;;5122574;27;20035;-53
2022/12/22 08:06:39;;;;;;;133.23;32.75;;;7.10;99.90;;;;;;5119888;27;20066;-53
2022/12/22 08:09:06;;;;;;;103.85;30.77;;;7.10;99.90;;;;;;5120436;27;20101;-54
2022/12/22 08:11:32;;;;;;;181.30;34.63;;;7.00;99.90;;;;;;5117993;27;20088;-51
2022/12/22 08:13:58;;;;;;;116.55;33.25;;;7.00;99.90;;;;;;5119434;27;20128;-52
2022/12/22 08:16:23;;;;;;;150.77;34.50;;;6.90;99.90;;;;;;5125425;27;20039;-53
2022/12/22 08:18:49;;;;;;;149.20;36.53;;;6.90;99.90;;;;;;5122672;27;20035;-52
2022/12/22 08:21:15;;;;;;;143.85;35.97;;;6.90;99.90;;;;;;5122917;27;20035;-51
2022/12/22 08:23:41;;;;;;;130.98;36.45;;;6.90;99.90;;;;;;5120180;27;20047;-54
2022/12/22 08:26:38;;;;;;;125.88;35.30;;;7.00;99.90;;;;;;5122077;27;20472;-55
2022/12/22 08:29:11;;;;;;;108.57;33.35;;;7.00;99.90;;;;;;5118100;27;20078;-50
2022/12/22 08:31:39;;;;;;;149.18;36.10;;;7.00;99.90;;;;;;5120097;27;20039;-53
2022/12/22 08:34:08;;;;;;;122.53;34.13;;;7.10;99.90;;;;;;5124196;27;20138;-50
2022/12/22 08:36:39;;;;;;;147.65;34.28;;;7.30;99.90;;;;;;5116183;27;20048;-50
2022/12/22 08:39:05;;;;;;;106.15;32.72;;;7.30;99.90;;;;;;5121551;27;20475;-51
2022/12/22 08:41:50;;;;;;;98.30;30.42;;;7.30;99.90;;;;;;5125304;27;20047;-50
2022/12/22 08:44:17;;;;;;;111.32;30.63;;;7.40;99.90;;;;;;5120527;27;20027;-51
2022/12/22 08:46:43;;;;;;;117.03;30.52;;;7.40;99.90;;;;;;5120470;27;20046;-52
2022/12/22 08:49:08;;;;;;;114.20;30.25;;;7.40;99.90;;;;;;5120756;27;20036;-50
2022/12/22 08:51:34;;;;;;;126.72;30.90;;;7.50;99.90;;;;;;5119791;27;20045;-50
2022/12/22 08:54:00;;;;;;;95.97;25.85;;;7.50;99.90;;;;;;5117782;27;20134;-50
2022/12/22 08:56:25;;;;;;;88.72;27.30;;;7.60;99.90;;;;;;5120558;27;20043;-51
2022/12/22 08:58:51;;;;;;;79.25;26.80;;;7.50;99.90;;;;;;5128448;27;20063;-50
2022/12/22 09:01:22;;;;;;;93.80;28.17;;;7.60;99.90;;;;;;5118061;27;20373;-50
2022/12/22 09:03:51;;;;;;;86.40;26.23;;;7.70;99.90;;;;;;5113585;27;21823;-53
2022/12/22 09:06:19;;;;;;;75.10;25.83;;;7.70;99.90;;;;;;5115007;27;20047;-50
2022/12/22 09:08:44;;;;;;;86.05;26.75;;;7.80;99.90;;;;;;5125535;27;20039;-51
2022/12/22 09:11:10;;;;;;;109.30;29.80;;;7.80;99.90;;;;;;5116178;27;20334;-52
2022/12/22 09:13:36;;;;;;;80.47;26.42;;;7.70;99.90;;;;;;5124380;27;20045;-50
2022/12/22 09:16:06;;;;;;;78.70;26.27;;;7.70;99.90;;;;;;5121024;27;20118;-52
2022/12/22 09:18:32;;;;;;;66.65;26.02;;;7.70;99.90;;;;;;5122346;27;20035;-53
2022/12/22 09:20:58;;;;;;;64.60;24.05;;;7.70;99.90;;;;;;5125417;27;21599;-53
2022/12/22 09:23:23;;;;;;;83.63;26.00;;;7.60;99.90;;;;;;5121888;27;20380;-50
2022/12/22 09:25:49;;;;;;;68.28;22.70;;;7.70;99.90;;;;;;5112183;27;20039;-56
2022/12/22 09:28:15;;;;;;;72.95;23.30;;;7.60;99.90;;;;;;5114585;27;20031;-54
2022/12/22 09:30:40;;;;;;;89.60;23.80;;;7.70;99.90;;;;;;5119834;27;20077;-52
2022/12/22 09:33:06;;;;;;;50.92;20.35;;;7.60;99.90;;;;;;5110649;27;20204;-56
2022/12/22 09:35:31;;;;;;;47.55;19.83;;;7.50;99.90;;;;;;5110996;27;20052;-55
2022/12/22 09:37:57;;;;;;;54.30;20.05;;;7.50;99.90;;;;;;5117582;27;20096;-55
2022/12/22 09:40:24;;;;;;;52.28;20.05;;;7.40;99.90;;;;;;5121781;27;20035;-51
2022/12/22 09:42:50;;;;;;;49.83;20.07;;;7.40;99.90;;;;;;5118927;27;20154;-52
2022/12/22 09:45:19;;;;;;;44.55;19.70;;;7.50;99.90;;;;;;5116131;27;20375;-54
2022/12/22 09:47:52;;;;;;;48.25;20.52;;;7.40;99.90;;;;;;5116246;27;20046;-55
2022/12/22 09:50:22;;;;;;;77.65;22.75;;;7.50;99.90;;;;;;5120964;27;20122;-55
2022/12/22 09:52:58;;;;;;;58.15;20.48;;;7.50;99.90;;;;;;5112466;27;20118;-53
2022/12/22 09:55:25;;;;;;;49.17;17.67;;;7.50;99.90;;;;;;5110791;27;20071;-51
2022/12/22 09:57:52;;;;;;;40.05;15.82;;;7.50;99.90;;;;;;5114522;27;20560;-51
2022/12/22 10:00:22;;;;;;;41.08;17.40;;;7.40;99.90;;;;;;5113416;27;20096;-50
2022/12/22 10:02:54;;;;;;;41.10;17.00;;;7.40;99.90;;;;;;5112755;27;20538;-52
2022/12/22 10:05:37;;;;;;;38.78;16.70;;;7.40;99.90;;;;;;5115154;27;20039;-55
2022/12/22 10:08:10;;;;;;;43.67;16.77;;;7.40;99.90;;;;;;5111574;27;20038;-55
2022/12/22 10:10:35;;;;;;;43.55;16.48;;;7.50;99.90;;;;;;5119908;27;20042;-54
2022/12/22 10:13:03;;;;;;;46.72;17.10;;;7.60;99.90;;;;;;5120809;27;20035;-53
2022/12/22 10:15:37;;;;;;;39.17;16.02;;;7.60;99.90;;;;;;5116138;27;20184;-54
2022/12/22 10:18:09;;;;;;;45.80;17.00;;;7.70;99.90;;;;;;5114591;27;20056;-51
2022/12/22 10:20:37;;;;;;;39.15;16.25;;;7.70;99.90;;;;;;5115324;28;20043;-52
2022/12/22 10:23:28;;;;;;;39.13;15.60;;;7.70;99.90;;;;;;5115328;28;20122;-50
2022/12/22 10:25:56;;;;;;;35.45;15.10;;;7.80;99.90;;;;;;5113229;28;20047;-51
2022/12/22 10:28:35;;;;;;;33.95;14.82;;;7.90;99.90;;;;;;5108313;28;20423;-56
2022/12/22 10:31:12;;;;;;;35.45;14.75;;;7.90;99.90;;;;;;5124833;27;20484;-55
2022/12/22 10:33:39;;;;;;;27.05;13.40;;;8.00;99.90;;;;;;5110419;28;20093;-52
2022/12/22 10:36:06;;;;;;;29.02;14.95;;;8.00;99.90;;;;;;5111341;28;20040;-51
2022/12/22 10:38:34;;;;;;;25.67;13.63;;;7.90;99.90;;;;;;5111499;28;20129;-54
2022/12/22 10:41:19;;;;;;;24.85;13.93;;;7.90;99.90;;;;;;5111484;28;20138;-51
2022/12/22 10:43:57;;;;;;;25.45;12.77;;;7.90;99.90;;;;;;5114881;28;20144;-56
2022/12/22 10:46:39;;;;;;;26.30;13.88;;;8.10;99.90;;;;;;5112354;28;20396;-51
2022/12/22 10:49:17;;;;;;;23.58;13.30;;;8.30;99.90;;;;;;5112516;28;20032;-51
2022/12/22 10:51:49;;;;;;;20.63;11.80;;;8.30;99.90;;;;;;5109824;28;20039;-52
2022/12/22 10:54:47;;;;;;;19.35;10.55;;;8.10;99.90;;;;;;5116205;28;20038;-52
2022/12/22 10:57:13;;;;;;;19.00;11.07;;;8.00;99.90;;;;;;5085359;27;20218;-53
2022/12/22 10:59:58;;;;;;;21.80;11.73;;;8.00;99.90;;;;;;5113559;28;20511;-52
2022/12/22 11:02:27;;;;;;;17.40;11.65;;;7.90;99.90;;;;;;5113184;28;20119;-50
2022/12/22 11:05:02;;;;;;;18.88;11.73;;;7.90;99.90;;;;;;5110307;28;20043;-50
2022/12/22 11:07:31;;;;;;;22.17;12.10;;;7.90;99.90;;;;;;5111805;28;20043;-52
2022/12/22 11:09:57;;;;;;;20.70;11.05;;;7.90;99.90;;;;;;5116872;27;20051;-50
2022/12/22 11:12:30;;;;;;;24.05;11.73;;;8.00;99.90;;;;;;5113161;27;20032;-53
2022/12/22 11:15:07;;;;;;;22.30;11.27;;;8.00;99.90;;;;;;5119702;27;20399;-51
2022/12/22 11:17:33;;;;;;;23.00;11.75;;;8.10;99.90;;;;;;5115930;27;20485;-51
2022/12/22 11:20:15;;;;;;;26.95;12.05;;;8.10;99.90;;;;;;5124998;27;20042;-52
2022/12/22 11:23:03;;;;;;;24.58;11.57;;;8.20;99.90;;;;;;5123248;27;20042;-50
2022/12/22 11:25:29;;;;;;;;;;;8.20;99.90;;;;;;5123787;27;20040;-54
2022/12/22 11:28:26;;;;;;;23.08;10.77;;;8.10;99.90;;;;;;5123482;27;19919;-50
2022/12/22 11:31:13;;;;;;;23.50;11.50;;;8.10;99.90;;;;;;5113943;27;20138;-53
2022/12/22 11:34:23;;;;;;;24.15;10.73;;;8.10;99.90;;;;;;5117919;27;20047;-50
2022/12/22 11:36:55;;;;;;;25.85;10.30;;;8.10;99.90;;;;;;5100331;27;20066;-50
2022/12/22 11:39:40;;;;;;;25.70;11.63;;;8.10;99.90;;;;;;5124255;27;20073;-51
2022/12/22 11:42:42;;;;;;;24.52;11.15;;;8.10;99.90;;;;;;5119107;27;20066;-51
2022/12/22 11:45:20;;;;;;;24.50;11.65;;;8.20;99.90;;;;;;5102340;27;20500;-51
2022/12/22 11:48:26;;;;;;;25.67;12.27;;;8.20;99.90;;;;;;5125701;27;20031;-54
2022/12/22 11:51:18;;;;;;;26.13;12.23;;;8.30;99.90;;;;;;5120253;27;20071;-51
2022/12/22 11:54:02;;;;;;;24.15;10.90;;;8.30;99.90;;;;;;5116655;27;20518;-54
2022/12/22 11:56:44;;;;;;;26.52;10.23;;;8.40;99.90;;;;;;5113754;27;20043;-51
2022/12/22 11:59:19;;;;;;;21.00;9.93;;;;;;;;;;5120019;27;20066;-52
2022/12/22 12:01:56;;;;;;;18.45;9.15;;;8.40;99.90;;;;;;5126747;27;20583;-50
2022/12/22 12:04:52;;;;;;;19.70;9.05;;;8.50;99.90;;;;;;5121209;27;20442;-50
2022/12/22 12:07:34;;;;;;;20.13;8.65;;;8.50;99.90;;;;;;5123865;27;20180;-50
2022/12/22 12:10:24;;;;;;;22.85;9.65;;;8.60;99.90;;;;;;5120335;27;20053;-50
2022/12/22 12:13:35;;;;;;;19.65;9.75;;;8.60;99.90;;;;;;5124558;27;20050;-50
2022/12/22 12:16:12;;;;;;;22.95;9.57;;;8.60;99.90;;;;;;5082792;27;20051;-50
2022/12/22 12:19:10;;;;;;;21.55;10.07;;;8.60;99.90;;;;;;5117373;27;21593;-51
2022/12/22 12:21:48;;;;;;;;;;;8.60;99.90;;;;;;5113753;27;20105;-54
2022/12/22 12:24:33;;;;;;;24.15;9.68;;;8.60;99.90;;;;;;5111153;27;19926;-51
2022/12/22 12:27:39;;;;;;;20.73;8.95;;;8.60;99.90;;;;;;5116334;27;20057;-55
2022/12/22 12:30:12;;;;;;;17.60;9.23;;;8.60;99.90;;;;;;5032570;28;20264;-51
2022/12/22 12:32:53;;;;;;;18.48;9.70;;;8.60;99.90;;;;;;5033078;28;20056;-51
2022/12/22 12:35:44;;;;;;;21.38;9.40;;;8.70;99.90;;;;;;5020465;28;20059;-54
2022/12/22 12:38:26;;;;;;;19.02;9.02;;;8.60;99.90;;;;;;5035991;28;20541;-50
2022/12/22 12:41:06;;;;;;;21.30;8.40;;;8.70;99.90;;;;;;5052408;28;20151;-50
2022/12/22 12:43:32;;;;;;;22.30;9.60;;;8.70;99.90;;;;;;5035963;28;20049;-55
2022/12/22 12:45:58;;;;;;;20.13;9.18;;;8.70;99.90;;;;;;5050516;28;20045;-50
2022/12/22 12:48:23;;;;;;;20.17;9.35;;;8.70;99.90;;;;;;5051459;28;20195;-51
2022/12/22 12:50:53;;;;;;;24.25;9.40;;;8.70;99.90;;;;;;5039827;28;20041;-50
2022/12/22 12:53:24;;;;;;;20.75;9.73;;;8.80;99.90;;;;;;5032267;28;20053;-51
2022/12/22 12:55:53;;;;;;;22.73;9.52;;;8.80;99.90;;;;;;5032796;28;20080;-50
2022/12/22 12:58:45;;;;;;;24.23;9.57;;;8.80;99.90;;;;;;5032039;28;20060;-51
2022/12/22 13:01:18;;;;;;;20.98;9.25;;;8.80;99.90;;;;;;5030164;28;20058;-51
2022/12/22 13:03:44;;;;;;;20.55;10.27;;;8.80;99.90;;;;;;5015866;28;20482;-51
2022/12/22 13:06:44;;;;;;;18.77;10.07;;;8.80;99.90;;;;;;5103453;27;20051;-51
2022/12/22 13:09:17;;;;;;;16.98;9.05;;;8.80;99.90;;;;;;5114314;28;20050;-52
2022/12/22 13:11:43;;;;;;;18.45;9.43;;;8.80;99.90;;;;;;5113441;27;20075;-51
2022/12/22 13:14:09;;;;;;;20.30;8.50;;;8.90;99.90;;;;;;5114406;28;20071;-50
2022/12/22 13:16:37;;;;;;;17.92;9.07;;;8.90;99.90;;;;;;5131372;27;20043;-50
2022/12/22 13:19:11;;;;;;;17.50;8.68;;;8.90;99.90;;;;;;5135250;27;20043;-50
2022/12/22 13:21:40;;;;;;;19.25;8.63;;;8.90;99.90;;;;;;5134529;27;20035;-54
2022/12/22 13:24:28;;;;;;;15.27;8.13;;;8.90;99.90;;;;;;5135709;27;20099;-55
2022/12/22 13:26:59;;;;;;;14.98;8.07;;;8.90;99.90;;;;;;5135254;27;20064;-53
2022/12/22 13:29:27;;;;;;;17.77;7.68;;;8.90;99.90;;;;;;5134947;27;20091;-55
2022/12/22 13:32:21;;;;;;;18.27;8.02;;;8.90;99.90;;;;;;5135793;27;20178;-53
2022/12/22 13:34:58;;;;;;;18.08;7.38;;;8.90;99.90;;;;;;5133131;27;20051;-55
2022/12/22 13:37:27;;;;;;;15.30;8.07;;;8.80;99.90;;;;;;5132462;27;20416;-55
2022/12/22 13:40:22;;;;;;;18.80;8.32;;;8.80;99.90;;;;;;5134799;27;20046;-51
2022/12/22 13:42:58;;;;;;;19.40;8.93;;;8.80;99.90;;;;;;5134599;27;20049;-54
2022/12/22 13:45:38;;;;;;;12.63;7.43;;;8.70;99.90;;;;;;5126431;27;20043;-55
2022/12/22 13:48:09;;;;;;;15.75;7.97;;;8.70;99.90;;;;;;5125507;27;20043;-53
2022/12/22 13:50:40;;;;;;;14.80;7.97;;;8.70;99.90;;;;;;5122740;27;20032;-55
2022/12/22 13:53:09;;;;;;;19.77;8.98;;;8.70;99.90;;;;;;5113627;28;20488;-53
2022/12/22 13:55:35;;;;;;;14.93;8.10;;;8.60;99.90;;;;;;5111926;27;20047;-51
2022/12/22 13:58:26;;;;;;;15.05;7.07;;;8.70;99.90;;;;;;5114233;28;20052;-52
2022/12/22 14:01:10;;;;;;;14.40;7.05;;;8.60;99.90;;;;;;5102268;27;20591;-52
2022/12/22 14:03:36;;;;;;;18.63;7.30;;;8.60;99.90;;;;;;5123845;27;20039;-54
2022/12/22 14:06:17;;;;;;;12.00;7.30;;;8.60;99.90;;;;;;5123217;27;20057;-51
2022/12/22 14:08:42;;;;;;;13.32;6.53;;;8.50;99.90;;;;;;5132974;27;20045;-50
2022/12/22 14:11:08;;;;;;;16.70;6.20;;;8.40;99.90;;;;;;5126891;27;20119;-50
2022/12/22 14:13:34;;;;;;;12.63;5.80;;;8.30;99.90;;;;;;5115019;27;20031;-50
2022/12/22 14:16:01;;;;;;;13.40;5.75;;;8.20;99.90;;;;;;5123602;27;20087;-51
2022/12/22 14:18:28;;;;;;;14.50;6.47;;;8.20;99.90;;;;;;5130676;27;20046;-51
2022/12/22 14:20:54;;;;;;;17.92;5.68;;;8.20;99.90;;;;;;5120055;27;20043;-52
2022/12/22 14:23:30;;;;;;;11.52;5.78;;;8.10;99.90;;;;;;5118606;28;20040;-52
2022/12/22 14:25:57;;;;;;;16.48;6.40;;;8.00;99.90;;;;;;5126588;28;20069;-53
2022/12/22 14:28:33;;;;;;;13.90;5.13;;;7.90;99.90;;;;;;5117842;28;20051;-51
2022/12/22 14:31:01;;;;;;;17.48;5.93;;;7.90;99.90;;;;;;5095417;28;20059;-54
2022/12/22 14:33:30;;;;;;;16.92;5.68;;;7.80;99.90;;;;;;5115180;28;20036;-51
2022/12/22 14:36:24;;;;;;;22.00;6.88;;;7.80;99.90;;;;;;5117115;27;20436;-55
2022/12/22 14:38:55;;;;;;;18.00;6.22;;;7.80;99.90;;;;;;5114122;28;20052;-55
2022/12/22 14:41:41;;;;;;;11.93;5.80;;;7.70;99.90;;;;;;5113150;28;20079;-52
2022/12/22 14:44:36;;;;;;;14.68;5.95;;;7.70;99.90;;;;;;5098922;28;20040;-55
2022/12/22 14:47:10;;;;;;;13.45;6.47;;;7.70;99.90;;;;;;5124097;27;20039;-52
2022/12/22 14:49:59;;;;;;;12.77;6.60;;;7.60;99.90;;;;;;5137212;27;20464;-55
2022/12/22 14:52:44;;;;;;;12.35;7.30;;;7.60;99.90;;;;;;5107999;27;20130;-52
2022/12/22 14:55:24;;;;;;;12.20;7.32;;;7.50;99.90;;;;;;5123904;27;20036;-54
2022/12/22 14:57:59;;;;;;;12.38;8.18;;;7.40;99.90;;;;;;5126172;27;20043;-54
2022/12/22 15:00:44;;;;;;;13.60;7.88;;;7.40;99.90;;;;;;5122148;27;20046;-53
2022/12/22 15:03:32;;;;;;;15.73;8.50;;;7.40;99.90;;;;;;5126740;27;20039;-52
2022/12/22 15:06:20;;;;;;;19.92;8.68;;;7.30;99.90;;;;;;5121483;27;20473;-51
2022/12/22 15:08:46;;;;;;;16.20;9.32;;;7.30;99.90;;;;;;5122499;27;20038;-51
2022/12/22 15:11:16;;;;;;;12.60;8.82;;;7.30;99.90;;;;;;5120553;27;20031;-54
2022/12/22 15:13:46;;;;;;;15.00;9.35;;;7.20;99.90;;;;;;5123810;27;20085;-52
2022/12/22 15:16:15;;;;;;;16.17;9.68;;;7.20;99.90;;;;;;5126290;27;20043;-51
2022/12/22 15:18:41;;;;;;;16.88;9.43;;;7.20;99.90;;;;;;5113888;27;20046;-52
2022/12/22 15:21:11;;;;;;;12.65;9.30;;;7.30;99.90;;;;;;5127863;27;20129;-50
2022/12/22 15:23:37;;;;;;;16.33;9.65;;;7.30;99.90;;;;;;5122994;27;20055;-50
2022/12/22 15:26:02;;;;;;;13.48;9.35;;;7.30;99.90;;;;;;5120447;27;20039;-51
2022/12/22 15:28:28;;;;;;;17.25;9.35;;;7.30;99.90;;;;;;5127474;27;20141;-52
2022/12/22 15:30:53;;;;;;;17.85;10.02;;;7.30;99.90;;;;;;5122247;27;20031;-52
2022/12/22 15:33:19;;;;;;;16.67;9.70;;;7.30;99.90;;;;;;5125332;27;20067;-52
2022/12/22 15:35:46;;;;;;;18.23;9.50;;;7.30;99.90;;;;;;5125735;27;20059;-50
2022/12/22 15:38:18;;;;;;;17.23;9.95;;;7.30;99.90;;;;;;5120968;27;20416;-51
2022/12/22 15:40:43;;;;;;;13.88;9.45;;;7.30;99.90;;;;;;5122619;27;20045;-50
2022/12/22 15:43:09;;;;;;;16.95;10.20;;;7.30;99.90;;;;;;5115831;27;20114;-51
2022/12/22 15:45:36;;;;;;;15.98;10.13;;;7.20;99.90;;;;;;5123973;27;20039;-51
2022/12/22 15:48:04;;;;;;;17.92;11.13;;;7.20;99.90;;;;;;5119555;27;20042;-54
2022/12/22 15:50:54;;;;;;;20.58;12.57;;;7.10;99.90;;;;;;5122377;27;20039;-55
2022/12/22 15:53:20;;;;;;;23.83;13.38;;;7.10;99.90;;;;;;5117045;27;20480;-52
2022/12/22 15:55:49;;;;;;;21.17;13.88;;;7.10;99.90;;;;;;5125208;27;20575;-54
2022/12/22 15:58:18;;;;;;;23.60;14.35;;;7.10;99.90;;;;;;5122503;27;20436;-54
2022/12/22 16:00:43;;;;;;;20.38;15.05;;;7.10;99.90;;;;;;5128906;27;20122;-54
2022/12/22 16:03:10;;;;;;;29.60;15.82;;;7.20;99.90;;;;;;5119449;27;20617;-54
2022/12/22 16:05:36;;;;;;;27.08;15.73;;;7.20;99.90;;;;;;5127913;27;20050;-51
2022/12/22 16:08:03;;;;;;;29.17;16.75;;;7.20;99.90;;;;;;5117419;27;20035;-52
2022/12/22 16:10:32;;;;;;;29.10;17.08;;;7.20;99.90;;;;;;5134119;27;20394;-55
2022/12/22 16:13:01;;;;;;;25.88;15.85;;;7.20;99.90;;;;;;5116929;27;20392;-51
2022/12/22 16:15:30;;;;;;;29.15;17.10;;;7.20;99.90;;;;;;5133216;27;20492;-55
2022/12/22 16:17:56;;;;;;;27.08;16.70;;;7.30;99.90;;;;;;5134247;27;20054;-56
2022/12/22 16:20:22;;;;;;;26.88;16.35;;;7.20;99.90;;;;;;5115633;27;20071;-54
2022/12/22 16:22:50;;;;;;;26.95;16.92;;;7.20;99.90;;;;;;5115310;27;20057;-51
2022/12/22 16:25:20;;;;;;;30.77;18.08;;;7.20;99.90;;;;;;5113549;27;20049;-52
2022/12/22 16:27:48;;;;;;;27.35;17.45;;;7.20;99.90;;;;;;5133130;27;20135;-55
2022/12/22 16:30:16;;;;;;;;;;;7.30;99.90;;;;;;5121892;27;20039;-54
2022/12/22 16:32:41;;;;;;;28.52;16.98;;;7.30;99.90;;;;;;5112785;27;19919;-51
2022/12/22 16:35:10;;;;;;;27.55;18.02;;;7.30;99.90;;;;;;5125004;27;20047;-51
2022/12/22 16:37:36;;;;;;;29.63;18.60;;;7.30;99.90;;;;;;5119391;27;20052;-51
2022/12/22 16:40:03;;;;;;;28.70;18.40;;;7.40;99.90;;;;;;5117253;27;20079;-51